createdAt,value
2023-04-24T00:00:48.812Z,63.27
2023-04-24T00:03:16.635Z,63.74
2023-04-24T00:05:46.662Z,63.18
2023-04-24T00:08:14.414Z,63.66
2023-04-24T00:10:42.211Z,63.55
2023-04-24T00:13:09.901Z,63.69
2023-04-24T00:15:37.674Z,63.39
2023-04-24T00:18:05.533Z,63.33
2023-04-24T00:20:34.391Z,63.34
2023-04-24T00:23:03.619Z,63.65
2023-04-24T00:25:31.389Z,63.36
2023-04-24T00:27:59.116Z,63.61
2023-04-24T00:30:26.842Z,63.35
2023-04-24T00:32:54.616Z,63.27
2023-04-24T00:35:22.547Z,63.17
2023-04-24T00:37:50.748Z,63.43
2023-04-24T00:40:19.867Z,63.52
2023-04-24T00:42:47.705Z,63.13
2023-04-24T00:45:15.732Z,63.33
2023-04-24T00:47:44.077Z,63.66
2023-04-24T00:50:12.349Z,63.53
2023-04-24T00:52:41.759Z,63.39
2023-04-24T00:55:10.739Z,63.39
2023-04-24T00:57:40.062Z,63.29
2023-04-24T01:00:12.623Z,63.35
2023-04-24T01:02:45.185Z,63.30
2023-04-24T01:05:14.248Z,63.11
2023-04-24T01:07:44.964Z,63.17
2023-04-24T01:10:13.724Z,63.17
2023-04-24T01:12:42.983Z,63.27
2023-04-24T01:15:11.959Z,63.18
2023-04-24T01:17:40.325Z,63.21
2023-04-24T01:20:09.847Z,63.41
2023-04-24T01:22:38.889Z,63.47
2023-04-24T01:25:07.484Z,63.42
2023-04-24T01:27:35.235Z,63.88
2023-04-24T01:30:03.232Z,63.26
2023-04-24T01:32:31.246Z,63.28
2023-04-24T01:34:59.495Z,63.37
2023-04-24T01:37:27.777Z,63.33
2023-04-24T01:39:56.864Z,63.52
2023-04-24T01:42:24.816Z,63.64
2023-04-24T01:44:52.970Z,63.69
2023-04-24T01:47:20.958Z,63.71
2023-04-24T01:49:50.154Z,63.25
2023-04-24T01:52:18.832Z,63.72
2023-04-24T01:54:46.932Z,63.42
2023-04-24T01:57:16.500Z,63.18
2023-04-24T01:59:44.509Z,63.41
2023-04-24T02:02:12.486Z,63.21
2023-04-24T02:04:41.231Z,63.47
2023-04-24T02:07:08.936Z,63.33
2023-04-24T02:09:36.644Z,63.25
2023-04-24T02:12:04.373Z,63.67
2023-04-24T02:14:33.477Z,63.39
2023-04-24T02:17:01.662Z,63.43
2023-04-24T02:19:29.427Z,63.54
2023-04-24T02:21:57.117Z,63.43
2023-04-24T02:24:24.817Z,63.22
2023-04-24T02:26:52.568Z,63.60
2023-04-24T02:29:20.301Z,63.18
2023-04-24T02:31:49.445Z,63.26
2023-04-24T02:34:17.357Z,63.56
2023-04-24T02:36:45.071Z,63.57
2023-04-24T02:39:12.812Z,63.14
2023-04-24T02:41:40.520Z,63.23
2023-04-24T02:44:08.213Z,63.14
2023-04-24T02:46:35.979Z,63.53
2023-04-24T02:49:05.092Z,63.39
2023-04-24T02:51:32.916Z,63.45
2023-04-24T02:54:00.653Z,63.39
2023-04-24T02:56:28.392Z,63.48
2023-04-24T02:58:56.048Z,63.14
2023-04-24T03:01:23.821Z,63.52
2023-04-24T03:03:51.633Z,63.11
2023-04-24T03:06:21.939Z,63.32
2023-04-24T03:08:49.761Z,63.22
2023-04-24T03:11:17.506Z,62.99
2023-04-24T03:13:45.234Z,63.04
2023-04-24T03:16:13.161Z,63.34
2023-04-24T03:18:40.844Z,63.08
2023-04-24T03:21:08.614Z,63.36
2023-04-24T03:23:37.700Z,63.53
2023-04-24T03:26:05.719Z,63.32
2023-04-24T03:28:33.414Z,63.22
2023-04-24T03:31:01.309Z,63.33
2023-04-24T03:33:29.066Z,62.95
2023-04-24T03:35:56.750Z,63.35
2023-04-24T03:38:24.507Z,63.33
2023-04-24T03:40:53.570Z,63.36
2023-04-24T03:43:21.257Z,63.39
2023-04-24T03:45:49.046Z,63.00
2023-04-24T03:48:16.764Z,62.91
2023-04-24T03:50:44.558Z,63.24
2023-04-24T03:53:12.281Z,63.44
2023-04-24T03:55:40.062Z,63.32
2023-04-24T03:58:09.168Z,63.22
2023-04-24T04:00:38.466Z,62.97
2023-04-24T04:03:06.397Z,63.03
2023-04-24T04:05:34.386Z,63.10
2023-04-24T04:08:02.091Z,63.03
2023-04-24T04:10:29.817Z,63.12
2023-04-24T04:12:57.569Z,62.98
2023-04-24T04:15:26.591Z,62.84
2023-04-24T04:17:54.294Z,63.04
2023-04-24T04:20:22.089Z,63.09
2023-04-24T04:22:49.822Z,62.91
2023-04-24T04:25:20.264Z,63.02
2023-04-24T04:27:48.829Z,63.48
2023-04-24T04:30:17.079Z,63.60
2023-04-24T04:32:46.235Z,63.47
2023-04-24T04:35:14.055Z,63.58
2023-04-24T04:37:42.006Z,63.44
2023-04-24T04:40:12.817Z,63.61
2023-04-24T04:42:41.324Z,63.55
2023-04-24T04:45:11.995Z,63.52
2023-04-24T04:47:40.533Z,63.31
2023-04-24T04:50:11.564Z,63.59
2023-04-24T04:52:39.340Z,63.29
2023-04-24T04:55:08.745Z,63.30
2023-04-24T04:57:36.469Z,63.75
2023-04-24T05:00:05.777Z,63.61
2023-04-24T05:02:33.570Z,63.80
2023-04-24T05:05:01.474Z,63.66
2023-04-24T05:07:30.588Z,63.60
2023-04-24T05:09:58.291Z,63.53
2023-04-24T05:12:26.010Z,63.45
2023-04-24T05:14:53.732Z,63.80
2023-04-24T05:17:21.604Z,63.93
2023-04-24T05:19:49.399Z,63.81
2023-04-24T05:22:18.580Z,64.27
2023-04-24T05:24:47.752Z,63.99
2023-04-24T05:27:16.157Z,64.28
2023-04-24T05:29:44.766Z,64.28
2023-04-24T05:32:12.668Z,64.26
2023-04-24T05:34:40.347Z,64.21
2023-04-24T05:37:10.770Z,64.50
2023-04-24T05:39:38.853Z,64.21
2023-04-24T05:42:07.987Z,64.21
2023-04-24T05:44:35.743Z,64.55
2023-04-24T05:47:03.466Z,64.67
2023-04-24T05:49:31.168Z,64.68
2023-04-24T05:51:59.363Z,64.58
2023-04-24T05:54:27.097Z,64.24
2023-04-24T05:56:55.511Z,64.27
2023-04-24T05:59:24.579Z,64.50
2023-04-24T06:01:52.406Z,64.26
2023-04-24T06:04:20.340Z,64.86
2023-04-24T06:06:51.760Z,64.86
2023-04-24T06:09:19.957Z,65.08
2023-04-24T06:11:47.672Z,64.68
2023-04-24T06:14:15.339Z,64.68
2023-04-24T06:16:44.869Z,64.89
2023-04-24T06:19:12.648Z,64.82
2023-04-24T06:21:40.365Z,65.06
2023-04-24T06:24:08.165Z,64.78
2023-04-24T06:26:35.948Z,64.85
2023-04-24T06:29:03.831Z,65.18
2023-04-24T06:31:31.654Z,65.37
2023-04-24T06:34:00.961Z,65.19
2023-04-24T06:36:28.935Z,64.96
2023-04-24T06:38:56.672Z,65.16
2023-04-24T06:41:24.353Z,65.46
2023-04-24T06:43:52.077Z,65.43
2023-04-24T06:46:19.902Z,65.36
2023-04-24T06:48:47.634Z,65.58
2023-04-24T06:51:16.740Z,65.72
2023-04-24T06:53:44.466Z,65.72
2023-04-24T06:56:12.286Z,65.56
2023-04-24T06:58:40.021Z,66.03
2023-04-24T07:01:07.848Z,65.98
2023-04-24T07:03:36.360Z,65.86
2023-04-24T07:06:05.271Z,66.22
2023-04-24T07:08:34.869Z,66.07
2023-04-24T07:11:02.764Z,66.28
2023-04-24T07:13:30.890Z,66.51
2023-04-24T07:15:58.818Z,66.29
2023-04-24T07:18:26.609Z,66.70
2023-04-24T07:20:54.285Z,66.38
2023-04-24T07:23:22.326Z,66.83
2023-04-24T07:25:51.463Z,66.64
2023-04-24T07:28:19.308Z,66.84
2023-04-24T07:30:47.214Z,66.71
2023-04-24T07:33:14.987Z,66.34
2023-04-24T07:35:42.755Z,66.51
2023-04-24T07:38:10.636Z,66.47
2023-04-24T07:40:38.705Z,66.07
2023-04-24T07:43:07.828Z,66.20
2023-04-24T07:45:38.080Z,66.35
2023-04-24T07:48:06.301Z,66.45
2023-04-24T07:50:34.216Z,66.12
2023-04-24T07:53:01.906Z,65.71
2023-04-24T07:55:29.644Z,66.02
2023-04-24T07:57:57.389Z,66.73
2023-04-24T08:00:26.496Z,66.63
2023-04-24T08:02:54.387Z,67.24
2023-04-24T08:05:22.416Z,67.18
2023-04-24T08:07:51.375Z,67.07
2023-04-24T08:10:19.233Z,67.29
2023-04-24T08:12:46.985Z,67.13
2023-04-24T08:15:14.715Z,67.20
2023-04-24T08:17:43.918Z,67.06
2023-04-24T08:20:14.619Z,67.36
2023-04-24T08:22:42.733Z,67.18
2023-04-24T08:25:11.758Z,67.19
2023-04-24T08:27:39.983Z,67.22
2023-04-24T08:30:08.875Z,67.00
2023-04-24T08:32:36.607Z,67.18
2023-04-24T08:35:06.557Z,66.82
2023-04-24T08:37:34.804Z,66.91
2023-04-24T08:40:03.193Z,66.96
2023-04-24T08:42:34.291Z,66.76
2023-04-24T08:45:03.430Z,66.84
2023-04-24T08:47:32.059Z,66.90
2023-04-24T08:50:03.739Z,66.51
2023-04-24T08:52:33.815Z,65.83
2023-04-24T08:55:02.346Z,65.41
2023-04-24T08:57:30.796Z,64.87
2023-04-24T08:59:59.863Z,64.61
2023-04-24T09:02:28.376Z,64.28
2023-04-24T09:04:58.244Z,63.79
2023-04-24T09:07:27.098Z,63.95
2023-04-24T09:09:56.976Z,63.37
2023-04-24T09:12:24.695Z,62.65
2023-04-24T09:14:53.372Z,62.05
2023-04-24T09:17:21.114Z,60.89
2023-04-24T09:19:48.832Z,60.98
2023-04-24T09:22:17.249Z,60.33
2023-04-24T09:24:45.045Z,60.25
2023-04-24T09:27:15.723Z,60.50
2023-04-24T09:29:56.032Z,61.17
2023-04-24T09:32:26.666Z,61.48
2023-04-24T09:35:08.391Z,61.54
2023-04-24T09:37:37.997Z,61.93
2023-04-24T09:40:17.205Z,62.56
2023-04-24T09:42:54.972Z,62.88
2023-04-24T09:45:22.966Z,63.11
2023-04-24T09:47:54.523Z,63.21
2023-04-24T09:50:22.301Z,63.79
2023-04-24T09:52:59.344Z,63.81
2023-04-24T09:55:27.667Z,63.73
2023-04-24T09:58:01.016Z,64.09
2023-04-24T10:00:30.229Z,63.58
2023-04-24T10:02:59.533Z,64.19
2023-04-24T10:05:29.953Z,63.92
2023-04-24T10:07:59.327Z,64.28
2023-04-24T10:10:27.704Z,63.54
2023-04-24T10:12:56.958Z,63.01
2023-04-24T10:15:24.807Z,63.29
2023-04-24T10:17:54.306Z,62.84
2023-04-24T10:20:23.362Z,62.96
2023-04-24T10:22:52.460Z,62.52
2023-04-24T10:25:22.806Z,62.25
2023-04-24T10:27:52.319Z,61.53
2023-04-24T10:30:22.399Z,61.29
2023-04-24T10:32:50.158Z,60.56
2023-04-24T10:35:23.177Z,59.69
2023-04-24T10:37:53.057Z,58.78
2023-04-24T10:40:27.225Z,58.20
2023-04-24T10:42:57.429Z,57.80
2023-04-24T10:45:28.157Z,57.82
2023-04-24T10:47:59.589Z,58.05
2023-04-24T10:50:31.404Z,58.63
2023-04-24T10:53:08.174Z,59.15
2023-04-24T10:55:42.994Z,59.35
2023-04-24T10:58:10.768Z,59.70
2023-04-24T11:00:41.701Z,59.92
2023-04-24T11:03:25.609Z,60.35
2023-04-24T11:05:57.139Z,60.08
2023-04-24T11:08:45.012Z,60.36
2023-04-24T11:11:14.590Z,60.30
2023-04-24T11:14:05.288Z,59.89
2023-04-24T11:16:36.533Z,60.17
2023-04-24T11:19:06.999Z,60.55
2023-04-24T11:21:42.336Z,60.42
2023-04-24T11:24:26.874Z,60.20
2023-04-24T11:26:56.026Z,60.04
2023-04-24T11:29:24.594Z,60.30
2023-04-24T11:31:54.919Z,60.37
2023-04-24T11:34:22.874Z,59.99
2023-04-24T11:36:51.007Z,59.90
2023-04-24T11:39:18.698Z,59.73
2023-04-24T11:41:46.412Z,59.89
2023-04-24T11:44:15.872Z,60.24
2023-04-24T11:46:44.591Z,59.93
2023-04-24T11:49:14.377Z,60.41
2023-04-24T11:51:51.484Z,60.01
2023-04-24T11:54:21.264Z,60.12
2023-04-24T11:56:49.110Z,59.81
2023-04-24T11:59:16.906Z,59.45
2023-04-24T12:01:46.134Z,59.40
2023-04-24T12:04:16.411Z,59.47
2023-04-24T12:07:02.015Z,59.65
2023-04-24T12:09:29.741Z,59.65
2023-04-24T12:11:58.887Z,59.46
2023-04-24T12:14:26.690Z,59.22
2023-04-24T12:16:54.428Z,58.50
2023-04-24T12:19:25.193Z,58.36
2023-04-24T12:22:03.351Z,58.78
2023-04-24T12:24:31.730Z,58.31
2023-04-24T12:26:59.794Z,58.11
2023-04-24T12:29:27.547Z,57.98
2023-04-24T12:31:56.316Z,57.29
2023-04-24T12:34:27.357Z,57.02
2023-04-24T12:36:55.036Z,56.13
2023-04-24T12:39:24.900Z,55.92
2023-04-24T12:41:57.106Z,55.40
2023-04-24T12:44:31.616Z,55.48
2023-04-24T12:46:59.768Z,55.18
2023-04-24T12:49:29.132Z,55.30
2023-04-24T12:51:56.820Z,56.01
2023-04-24T12:54:24.782Z,56.42
2023-04-24T12:56:52.521Z,56.51
2023-04-24T12:59:20.288Z,56.91
2023-04-24T13:01:48.122Z,56.81
2023-04-24T13:04:16.687Z,56.98
2023-04-24T13:06:45.923Z,56.84
2023-04-24T13:09:13.641Z,56.61
2023-04-24T13:11:41.620Z,56.80
2023-04-24T13:14:09.447Z,56.94
2023-04-24T13:16:37.202Z,57.13
2023-04-24T13:19:05.016Z,57.10
2023-04-24T13:21:32.865Z,57.32
2023-04-24T13:24:02.213Z,57.30
2023-04-24T13:26:29.915Z,57.63
2023-04-24T13:28:57.640Z,57.27
2023-04-24T13:31:25.527Z,57.20
2023-04-24T13:33:53.297Z,57.39
2023-04-24T13:36:21.180Z,57.52
2023-04-24T13:38:48.912Z,57.92
2023-04-24T13:41:18.019Z,57.95
2023-04-24T13:43:46.004Z,57.92
2023-04-24T13:46:13.939Z,58.39
2023-04-24T13:48:41.775Z,58.92
2023-04-24T13:51:09.530Z,58.93
2023-04-24T13:53:39.401Z,59.12
2023-04-24T13:56:07.526Z,59.18
2023-04-24T13:58:37.056Z,59.31
2023-04-24T14:01:06.286Z,59.34
2023-04-24T14:03:35.418Z,59.41
2023-04-24T14:06:03.666Z,59.37
2023-04-24T14:08:31.449Z,59.44
2023-04-24T14:10:59.366Z,59.41
2023-04-24T14:13:27.192Z,59.64
2023-04-24T14:15:56.377Z,59.29
2023-04-24T14:18:24.096Z,59.53
2023-04-24T14:20:51.826Z,59.18
2023-04-24T14:23:19.615Z,58.91
2023-04-24T14:25:49.434Z,59.42
2023-04-24T14:28:17.223Z,59.41
2023-04-24T14:30:45.020Z,59.32
2023-04-24T14:33:14.346Z,59.52
2023-04-24T14:35:43.795Z,59.49
2023-04-24T14:38:11.894Z,59.28
2023-04-24T14:43:10.651Z,59.11
2023-04-24T14:45:39.114Z,59.16
2023-04-24T14:48:07.052Z,59.25
2023-04-24T14:50:36.237Z,58.89
2023-04-24T14:53:04.007Z,58.74
2023-04-24T14:55:31.986Z,58.74
2023-04-24T14:57:59.706Z,58.40
2023-04-24T15:00:27.455Z,57.81
2023-04-24T15:02:56.412Z,58.05
2023-04-24T15:05:25.728Z,57.65
2023-04-24T15:07:55.198Z,57.23
2023-04-24T15:10:23.969Z,57.12
2023-04-24T15:12:51.776Z,57.01
2023-04-24T15:15:19.496Z,57.21
2023-04-24T15:17:47.203Z,57.03
2023-04-24T15:20:15.072Z,56.81
2023-04-24T15:22:42.886Z,56.76
2023-04-24T15:25:12.252Z,56.73
2023-04-24T15:27:44.019Z,56.76
2023-04-24T15:30:13.017Z,56.88
2023-04-24T15:32:41.362Z,56.64
2023-04-24T15:35:10.568Z,57.00
2023-04-24T15:37:38.550Z,56.90
2023-04-24T15:40:08.288Z,56.54
2023-04-24T15:42:37.831Z,56.42
2023-04-24T15:45:05.971Z,56.66
2023-04-24T15:47:35.214Z,56.26
2023-04-24T15:50:03.145Z,56.20
2023-04-24T15:52:30.909Z,56.11
2023-04-24T15:54:58.646Z,56.06
2023-04-24T15:57:27.090Z,55.61
2023-04-24T15:59:56.227Z,55.50
2023-04-24T16:02:24.480Z,54.92
2023-04-24T16:04:53.142Z,55.74
2023-04-24T16:07:21.016Z,55.93
2023-04-24T16:09:48.715Z,56.09
2023-04-24T16:12:16.504Z,55.37
2023-04-24T16:14:44.285Z,54.80
2023-04-24T16:17:13.382Z,55.51
2023-04-24T16:19:41.161Z,55.20
2023-04-24T16:22:08.860Z,55.38
2023-04-24T16:24:36.951Z,55.50
2023-04-24T16:27:04.834Z,55.76
2023-04-24T16:29:32.854Z,55.24
2023-04-24T16:32:00.613Z,55.32
2023-04-24T16:34:29.694Z,55.70
2023-04-24T16:36:57.477Z,55.74
2023-04-24T16:39:26.462Z,55.69
2023-04-24T16:44:22.579Z,56.03
2023-04-24T16:46:50.314Z,56.13
2023-04-24T16:49:18.170Z,55.79
2023-04-24T16:51:47.319Z,55.95
2023-04-24T16:54:15.031Z,56.06
2023-04-24T16:56:42.754Z,56.21
2023-04-24T16:59:10.567Z,56.38
2023-04-24T17:01:38.299Z,56.48
2023-04-24T17:04:06.673Z,56.36
2023-04-24T17:06:34.641Z,56.42
2023-04-24T17:09:04.732Z,56.51
2023-04-24T17:11:32.440Z,56.49
2023-04-24T17:14:00.535Z,56.65
2023-04-24T17:16:28.592Z,56.44
2023-04-24T17:18:56.298Z,56.19
2023-04-24T17:21:24.041Z,56.00
2023-04-24T17:23:51.801Z,55.33
2023-04-24T17:26:21.191Z,54.96
2023-04-24T17:28:49.203Z,53.78
2023-04-24T17:31:17.130Z,53.33
2023-04-24T17:33:44.845Z,52.77
2023-04-24T17:36:13.010Z,51.97
2023-04-24T17:38:40.750Z,51.91
2023-04-24T17:41:08.432Z,51.87
2023-04-24T17:43:37.652Z,52.42
2023-04-24T17:46:07.414Z,52.33
2023-04-24T17:48:36.535Z,52.74
2023-04-24T17:51:04.271Z,53.21
2023-04-24T17:53:32.060Z,53.53
2023-04-24T17:56:03.419Z,53.97
2023-04-24T17:58:31.783Z,53.80
2023-04-24T18:01:00.971Z,53.77
2023-04-24T18:03:28.922Z,53.46
2023-04-24T18:05:56.732Z,53.61
2023-04-24T18:08:24.590Z,53.67
2023-04-24T18:10:52.416Z,53.63
2023-04-24T18:13:20.209Z,53.78
2023-04-24T18:15:48.043Z,53.79
2023-04-24T18:18:18.116Z,53.85
2023-04-24T18:20:46.769Z,53.97
2023-04-24T18:23:14.493Z,54.07
2023-04-24T18:25:42.262Z,54.12
2023-04-24T18:28:10.116Z,54.26
2023-04-24T18:30:37.972Z,54.27
2023-04-24T18:33:05.957Z,54.31
2023-04-24T18:35:35.173Z,54.78
2023-04-24T18:38:02.953Z,54.52
2023-04-24T18:40:32.877Z,54.36
2023-04-24T18:43:00.731Z,54.50
2023-04-24T18:45:28.525Z,54.60
2023-04-24T18:47:56.359Z,54.72
2023-04-24T18:50:25.681Z,54.70
2023-04-24T18:52:54.872Z,54.34
2023-04-24T18:55:22.766Z,54.39
2023-04-24T18:57:50.577Z,54.39
2023-04-24T19:00:18.953Z,54.40
2023-04-24T19:02:46.846Z,54.72
2023-04-24T19:05:14.650Z,54.90
2023-04-24T19:07:42.443Z,54.99
2023-04-24T19:10:13.154Z,55.05
2023-04-24T19:12:41.027Z,55.19
2023-04-24T19:15:11.625Z,55.18
2023-04-24T19:17:39.460Z,55.22
2023-04-24T19:20:08.488Z,55.27
2023-04-24T19:22:36.767Z,55.21
2023-04-24T19:25:05.445Z,55.25
2023-04-24T19:27:34.705Z,55.27
2023-04-24T19:30:02.511Z,55.04
2023-04-24T19:32:32.697Z,55.09
2023-04-24T19:35:00.757Z,55.13
2023-04-24T19:37:28.654Z,55.49
2023-04-24T19:39:56.406Z,55.57
2023-04-24T19:42:35.753Z,55.44
2023-04-24T19:45:12.717Z,55.52
2023-04-24T19:47:40.792Z,55.54
2023-04-24T19:50:09.632Z,55.37
2023-04-24T19:52:37.463Z,55.65
2023-04-24T19:55:05.639Z,55.71
2023-04-24T19:57:33.425Z,55.61
2023-04-24T20:00:01.132Z,55.47
2023-04-24T20:02:30.312Z,55.43
2023-04-24T20:04:58.262Z,55.74
2023-04-24T20:07:26.517Z,55.94
2023-04-24T20:09:54.229Z,55.76
2023-04-24T20:12:22.017Z,55.68
2023-04-24T20:14:49.830Z,55.70
2023-04-24T20:17:17.931Z,55.91
2023-04-24T20:19:47.189Z,56.30
2023-04-24T20:22:15.030Z,55.94
2023-04-24T20:24:43.689Z,56.10
2023-04-24T20:27:13.146Z,56.18
2023-04-24T20:29:41.072Z,56.13
2023-04-24T20:32:08.868Z,56.45
2023-04-24T20:34:36.655Z,56.11
2023-04-24T20:37:06.333Z,56.20
2023-04-24T20:39:34.077Z,56.05
2023-04-24T20:42:01.796Z,56.11
2023-04-24T20:44:29.505Z,56.20
2023-04-24T20:46:57.360Z,55.99
2023-04-24T20:49:25.217Z,56.19
2023-04-24T20:51:52.980Z,56.28
2023-04-24T20:54:22.313Z,56.31
2023-04-24T20:56:50.097Z,56.41
2023-04-24T20:59:18.379Z,56.33
2023-04-24T21:01:46.773Z,56.14
2023-04-24T21:04:14.594Z,56.23
2023-04-24T21:06:42.288Z,56.23
2023-04-24T21:09:10.577Z,56.11
2023-04-24T21:11:39.650Z,56.19
2023-04-24T21:14:07.384Z,56.39
2023-04-24T21:16:35.274Z,56.24
2023-04-24T21:19:03.399Z,56.28
2023-04-24T21:21:32.065Z,56.45
2023-04-24T21:24:01.606Z,56.29
2023-04-24T21:26:29.527Z,56.36
2023-04-24T21:28:58.703Z,56.50
2023-04-24T21:31:26.629Z,56.33
2023-04-24T21:33:54.453Z,56.43
2023-04-24T21:36:22.152Z,56.34
2023-04-24T21:38:49.925Z,56.39
2023-04-24T21:41:17.671Z,56.58
2023-04-24T21:43:46.649Z,56.63
2023-04-24T21:46:17.083Z,56.62
2023-04-24T21:48:44.816Z,56.61
2023-04-24T21:51:13.002Z,56.46
2023-04-24T21:53:41.451Z,56.46
2023-04-24T21:56:11.790Z,56.67
2023-04-24T21:58:39.897Z,56.36
2023-04-24T22:01:07.751Z,56.50
2023-04-24T22:03:37.068Z,56.43
2023-04-24T22:06:05.283Z,56.51
2023-04-24T22:08:33.026Z,56.66
2023-04-24T22:11:01.310Z,56.60
2023-04-24T22:13:29.145Z,56.56
2023-04-24T22:15:57.214Z,56.38
2023-04-24T22:18:30.682Z,56.55
2023-04-24T22:21:09.497Z,56.49
2023-04-24T22:23:37.578Z,56.63
2023-04-24T22:26:06.011Z,56.62
2023-04-24T22:28:33.792Z,56.43
2023-04-24T22:31:01.518Z,56.64
2023-04-24T22:33:29.282Z,56.75
2023-04-24T22:35:57.003Z,56.80
2023-04-24T22:38:26.176Z,56.83
2023-04-24T22:40:54.365Z,56.77
2023-04-24T22:43:22.171Z,56.81
2023-04-24T22:45:49.969Z,56.83
2023-04-24T22:48:17.757Z,56.80
2023-04-24T22:50:45.495Z,56.89
2023-04-24T22:53:13.237Z,56.87
2023-04-24T22:55:42.373Z,57.03
2023-04-24T22:58:10.251Z,57.01
2023-04-24T23:00:38.240Z,57.04
2023-04-24T23:03:06.692Z,56.88
2023-04-24T23:05:34.724Z,57.24
2023-04-24T23:08:02.411Z,57.04
2023-04-24T23:10:30.438Z,57.06
2023-04-24T23:12:59.569Z,57.13
2023-04-24T23:15:27.400Z,57.24
2023-04-24T23:17:55.231Z,57.15
2023-04-24T23:20:23.163Z,57.13
2023-04-24T23:22:50.875Z,57.22
2023-04-24T23:25:19.064Z,57.13
2023-04-24T23:27:46.794Z,57.26
2023-04-24T23:30:15.960Z,57.32
2023-04-24T23:32:44.836Z,57.30
2023-04-24T23:35:12.660Z,57.46
2023-04-24T23:37:40.484Z,57.47
2023-04-24T23:40:10.583Z,57.40
2023-04-24T23:42:38.362Z,57.40
2023-04-24T23:45:06.906Z,57.26
2023-04-24T23:47:36.337Z,57.44
2023-04-24T23:50:04.719Z,57.49
2023-04-24T23:52:32.554Z,57.50
2023-04-24T23:55:00.540Z,57.42
2023-04-24T23:57:28.288Z,57.47
2023-04-24T23:59:56.291Z,57.59
